Time;durP1;ratioP1;P1;durP2;ratioP2;P2;SDS_P1;SDS_P2;PMS_P1;PMS_P2;Temp;Humidity;BMP_temperature;BMP_pressure;BME280_temperature;BME280_humidity;BME280_pressure;Samples;Min_cycle;Max_cycle;Signal;HPM_P1;HPM_P2
2022/10/16 00:00:42;;;;;;;6.00;3.03;;;;;;;11.06;100.00;100748.69;2088016;28;20033;-70
2022/10/16 00:01:44;;;;;;;8.00;3.30;;;;;;;11.04;100.00;100750.53;2079051;28;35260;-73
2022/10/16 00:02:46;;;;;;;7.60;3.28;;;;;;;11.03;100.00;100753.25;2079446;28;34275;-71
2022/10/16 00:03:53;;;;;;;4.75;3.03;;;;;;;10.98;100.00;100752.50;2080599;28;20046;-71
2022/10/16 00:04:54;;;;;;;5.63;2.80;;;;;;;11.00;100.00;100756.00;2087372;28;37562;-72
2022/10/16 00:06:00;;;;;;;4.68;3.05;;;;;;;10.96;100.00;100757.03;2087588;28;31468;-72
2022/10/16 00:07:02;;;;;;;6.95;3.45;;;;;;;10.94;100.00;100754.38;2079528;28;33621;-72
2022/10/16 00:08:04;;;;;;;5.90;2.95;;;;;;;10.92;100.00;100758.91;2078216;28;38125;-72
2022/10/16 00:09:06;;;;;;;7.78;3.28;;;;;;;10.92;100.00;100758.03;2080364;28;20034;-71
2022/10/16 00:10:08;;;;;;;4.90;2.72;;;;;;;10.92;100.00;100760.72;2079563;28;37163;-72
2022/10/16 00:11:13;;;;;;;8.38;2.83;;;;;;;10.96;100.00;100759.72;2079895;28;39711;-72
2022/10/16 00:12:17;;;;;;;4.80;2.92;;;;;;;10.93;100.00;100763.38;2079329;28;37460;-71
2022/10/16 00:13:20;;;;;;;7.40;3.22;;;;;;;10.93;100.00;100768.72;2079259;28;26553;-72
2022/10/16 00:14:24;;;;;;;5.97;2.50;;;;;;;10.92;100.00;100758.91;2080189;28;20042;-72
2022/10/16 00:15:26;;;;;;;6.13;2.88;;;;;;;10.90;100.00;100763.44;2079948;28;40761;-72
2022/10/16 00:16:29;;;;;;;11.30;3.15;;;;;;;10.91;100.00;100759.84;2079695;28;29151;-72
2022/10/16 00:17:30;;;;;;;4.85;2.80;;;;;;;10.94;100.00;100765.09;2079200;28;36588;-72
2022/10/16 00:18:33;;;;;;;6.07;2.92;;;;;;;10.90;100.00;100758.09;2079808;28;35808;-72
2022/10/16 00:19:35;;;;;;;7.97;2.58;;;;;;;10.87;100.00;100760.84;2079238;28;36685;-72
2022/10/16 00:20:36;;;;;;;7.50;2.90;;;;;;;10.85;100.00;100760.88;2079099;28;39612;-72
2022/10/16 00:21:38;;;;;;;4.88;2.80;;;;;;;10.84;100.00;100761.81;2080038;28;30925;-72
2022/10/16 00:22:40;;;;;;;6.95;3.10;;;;;;;10.85;100.00;100763.56;2080638;28;20799;-71
2022/10/16 00:23:42;;;;;;;4.03;2.70;;;;;;;10.84;100.00;100761.81;2087516;28;33737;-72
2022/10/16 00:24:44;;;;;;;8.93;2.75;;;;;;;10.86;100.00;100761.78;2087686;28;20045;-72
2022/10/16 00:25:59;;;;;;;7.18;2.95;;;;;;;10.84;100.00;100763.63;2079726;28;20034;-72
2022/10/16 00:27:03;;;;;;;3.88;2.20;;;;;;;10.87;100.00;100774.22;2081474;28;32614;-71
2022/10/16 00:28:05;;;;;;;5.78;2.65;;;;;;;10.86;100.00;100762.63;2086437;28;33327;-72
2022/10/16 00:29:07;;;;;;;7.88;2.67;;;;;;;10.83;100.00;100767.19;2079620;28;36840;-72
2022/10/16 00:30:09;;;;;;;3.63;2.30;;;;;;;10.81;100.00;100772.59;2079557;28;36822;-72
2022/10/16 00:31:12;;;;;;;4.30;2.20;;;;;;;10.80;100.00;100756.56;2080371;28;20045;-72
2022/10/16 00:32:13;;;;;;;4.07;2.25;;;;;;;10.83;100.00;100767.19;2079678;28;36722;-72
2022/10/16 00:33:15;;;;;;;8.32;2.63;;;;;;;10.84;100.00;100763.63;2079808;28;34204;-72
2022/10/16 00:34:17;;;;;;;6.25;2.40;;;;;;;10.85;100.00;100765.34;2079839;28;32828;-72
2022/10/16 00:35:18;;;;;;;3.75;2.00;;;;;;;10.82;100.00;100762.75;2079339;28;35457;-72
2022/10/16 00:36:24;;;;;;;7.90;2.20;;;;;;;10.82;100.00;100765.44;2079837;28;36026;-72
2022/10/16 00:37:25;;;;;;;4.30;2.15;;;;;;;10.81;100.00;100763.69;2079874;28;38188;-72
2022/10/16 00:38:29;;;;;;;4.32;2.13;;;;;;;10.79;100.00;100765.53;2079671;28;35634;-72
2022/10/16 00:39:31;;;;;;;3.78;2.10;;;;;;;10.85;100.00;100770.72;2079496;28;20120;-71
2022/10/16 00:40:33;;;;;;;5.38;2.38;;;;;;;10.84;100.00;100769.84;2080102;28;21676;-71
2022/10/16 00:41:34;;;;;;;2.90;2.15;;;;;;;10.82;100.00;100773.47;2079927;28;34404;-73
2022/10/16 00:42:36;;;;;;;6.00;2.30;;;;;;;10.85;100.00;100770.72;2080189;28;37003;-72
2022/10/16 00:43:43;;;;;;;5.57;2.65;;;;;;;10.81;100.00;100769.03;2080573;28;20042;-72
2022/10/16 00:44:58;;;;;;;5.15;2.20;;;;;;;10.78;100.00;100774.47;2081082;28;20041;-72
2022/10/16 00:46:04;;;;;;;6.18;2.40;;;;;;;10.79;100.00;100770.88;2080671;28;24819;-72
2022/10/16 00:47:12;;;;;;;4.55;2.08;;;;;;;10.79;100.00;100778.94;2079726;28;37647;-71
2022/10/16 00:48:14;;;;;;;5.85;1.90;;;;;;;10.76;100.00;100782.53;2081380;28;34215;-72
2022/10/16 00:49:20;;;;;;;8.15;2.15;;;;;;;10.78;100.00;100780.69;2086856;28;31132;-72
2022/10/16 00:50:34;;;;;;;5.28;2.22;;;;;;;10.79;100.00;100781.59;2080122;28;32619;-72
2022/10/16 00:51:40;;;;;;;5.18;2.10;;;;;;;10.78;100.00;100777.16;2080163;28;30588;-72
2022/10/16 00:52:47;;;;;;;5.05;2.05;;;;;;;10.79;100.00;100778.94;2079878;28;39387;-71
2022/10/16 00:53:50;;;;;;;5.20;2.35;;;;;;;10.78;100.00;100778.03;2079682;28;34869;-72
2022/10/16 00:54:54;;;;;;;3.33;1.70;;;;;;;10.74;100.00;100779.03;2071693;28;40200;-71
2022/10/16 00:55:55;;;;;;;8.70;2.17;;;;;;;10.75;100.00;100778.13;2071478;28;32014;-72
2022/10/16 00:57:05;;;;;;;4.25;1.92;;;;;;;10.75;100.00;100780.81;2079579;28;33827;-72
2022/10/16 00:58:08;;;;;;;6.32;2.20;;;;;;;10.76;100.00;100779.88;2079496;28;35389;-72
2022/10/16 00:59:32;;;;;;;3.70;2.03;;;;;;;10.69;100.00;100770.25;2079538;28;30485;-72
2022/10/16 01:00:36;;;;;;;6.28;2.10;;;;;;;10.66;100.00;100771.22;2079724;28;38673;-72
2022/10/16 01:01:37;;;;;;;6.38;1.90;;;;;;;10.64;100.00;100766.78;2079687;28;20046;-73
2022/10/16 01:02:39;;;;;;;5.70;2.03;;;;;;;10.59;100.00;100772.28;2079353;28;37961;-72
2022/10/16 01:03:43;;;;;;;3.33;1.70;;;;;;;10.56;100.00;100769.69;2080613;28;20045;-72
2022/10/16 01:04:52;;;;;;;7.18;2.10;;;;;;;10.55;100.00;100765.25;2080728;28;20046;-72
2022/10/16 01:06:23;;;;;;;5.32;2.17;;;;;;;10.56;100.00;100766.13;2079531;28;33929;-72
2022/10/16 01:07:43;;;;;;;6.53;1.65;;;;;;;10.49;100.00;100762.72;2085237;28;20814;-72
2022/10/16 01:09:42;;;;;;;7.97;2.15;;;;;;;10.52;100.00;100761.78;2080068;28;20038;-72
2022/10/16 01:10:57;;;;;;;7.85;2.03;;;;;;;10.51;100.00;100763.56;2079518;28;34559;-73
2022/10/16 01:12:39;;;;;;;4.55;1.98;;;;;;;10.50;100.00;100759.16;2078880;28;40202;-73
2022/10/16 01:13:49;;;;;;;4.32;1.90;;;;;;;10.54;100.00;100760.81;2079996;28;32173;-73
2022/10/16 01:15:20;;;;;;;6.35;2.20;;;;;;;10.49;100.00;100758.25;2080599;28;20447;-72
2022/10/16 01:16:51;;;;;;;7.35;2.03;;;;;;;10.41;100.00;100760.25;2080689;28;20918;-74
2022/10/16 01:18:31;;;;;;;4.63;1.48;;;;;;;10.38;100.00;100765.66;2079806;28;38741;-73
2022/10/16 01:20:01;;;;;;;8.45;1.75;;;;;;;10.40;100.00;100762.97;2062732;28;35275;-73
2022/10/16 01:21:15;;;;;;;6.50;2.05;;;;;;;10.37;100.00;100766.56;2069504;28;20927;-73
2022/10/16 01:22:24;;;;;;;7.30;2.00;;;;;;;10.35;100.00;100770.22;2072722;28;20081;-73
2022/10/16 01:23:57;;;;;;;6.90;2.30;;;;;;;10.33;100.00;100762.22;2074683;28;21601;-73
2022/10/16 01:25:08;;;;;;;6.40;2.30;;;;;;;10.32;100.00;100760.47;2079020;28;35811;-71
2022/10/16 01:26:32;;;;;;;10.40;2.75;;;;;;;10.36;100.00;100769.31;2088752;28;30832;-73
2022/10/16 01:27:39;;;;;;;5.35;2.10;;;;;;;10.30;100.00;100765.84;2084564;28;36008;-73
2022/10/16 01:29:09;;;;;;;5.60;2.13;;;;;;;10.32;100.00;100776.53;2081213;28;35181;-74
2022/10/16 01:30:21;;;;;;;9.23;2.38;;;;;;;10.41;100.00;100760.25;2055549;28;42487;-73
2022/10/16 01:31:34;;;;;;;5.72;2.08;;;;;;;10.45;100.00;100771.75;2078200;28;20053;-73
2022/10/16 01:33:09;;;;;;;4.35;1.77;;;;;;;10.42;100.00;100761.13;2083553;28;35006;-72
2022/10/16 01:34:37;;;;;;;6.68;1.95;;;;;;;10.49;100.00;100762.72;2072344;28;23085;-71
2022/10/16 01:35:45;;;;;;;4.75;1.52;;;;;;;10.52;100.00;100761.78;2080873;28;31544;-73
2022/10/16 01:36:55;;;;;;;5.07;1.55;;;;;;;10.53;100.00;100760.84;2080335;28;38562;-72
2022/10/16 01:38:07;;;;;;;4.97;1.55;;;;;;;10.52;100.00;100764.47;2082778;28;20049;-72
2022/10/16 01:39:14;;;;;;;5.55;1.67;;;;;;;10.56;100.00;100760.78;2086504;28;33138;-72
2022/10/16 01:40:20;;;;;;;5.35;1.50;;;;;;;10.53;100.00;100753.69;2080290;28;34090;-73
2022/10/16 01:41:34;;;;;;;6.95;2.00;;;;;;;10.56;100.00;100769.69;2081893;28;34643;-72
2022/10/16 01:42:45;;;;;;;9.52;2.00;;;;;;;10.61;100.00;100764.22;2086352;28;39577;-72
2022/10/16 01:44:14;;;;;;;2.67;1.40;;;;;;;10.60;100.00;100768.66;2080382;28;34046;-73
2022/10/16 01:45:19;;;;;;;4.78;1.70;;;;;;;10.60;100.00;100773.16;2080884;28;32200;-74
2022/10/16 01:46:22;;;;;;;8.43;1.60;;;;;;;10.62;100.00;100761.50;2080129;28;36371;-72
2022/10/16 01:47:26;;;;;;;6.82;1.50;;;;;;;10.63;100.00;100760.56;2081265;28;32965;-72
2022/10/16 01:48:33;;;;;;;8.45;1.60;;;;;;;10.62;100.00;100758.84;2087244;28;38437;-72
2022/10/16 01:49:38;;;;;;;4.43;1.60;;;;;;;10.64;100.00;100761.44;2079970;28;37806;-71
2022/10/16 01:50:43;;;;;;;4.18;1.60;;;;;;;10.72;100.00;100766.63;2079581;28;36373;-72
2022/10/16 01:51:49;;;;;;;5.80;1.40;;;;;;;10.74;100.00;100778.16;2079516;28;35919;-72
2022/10/16 01:52:55;;;;;;;3.67;1.30;;;;;;;10.70;100.00;100783.59;2081823;28;20054;-73
2022/10/16 01:54:01;;;;;;;7.85;1.35;;;;;;;10.76;100.00;100776.31;2087102;28;40383;-72
2022/10/16 01:55:08;;;;;;;5.78;1.67;;;;;;;10.77;100.00;100776.28;2080155;28;27993;-73
2022/10/16 01:56:13;;;;;;;5.65;1.50;;;;;;;10.76;100.00;100781.69;2073433;28;31477;-74
2022/10/16 01:57:18;;;;;;;3.85;1.27;;;;;;;10.75;100.00;100783.47;2073042;28;20039;-72
2022/10/16 01:58:22;;;;;;;4.25;1.63;;;;;;;10.76;100.00;100785.22;2081638;28;20899;-72
2022/10/16 01:59:29;;;;;;;5.45;1.30;;;;;;;10.78;100.00;100785.19;2087863;28;37570;-73
2022/10/16 02:00:32;;;;;;;5.53;1.23;;;;;;;10.78;100.00;100778.03;2080225;28;20049;-72
2022/10/16 02:01:38;;;;;;;5.00;1.23;;;;;;;10.77;100.00;100775.41;2079788;28;38966;-71
2022/10/16 02:02:43;;;;;;;4.30;1.20;;;;;;;10.80;100.00;100786.03;2079965;28;31127;-72
2022/10/16 02:03:53;;;;;;;3.75;1.50;;;;;;;10.84;100.00;100780.56;2080442;28;20049;-72
2022/10/16 02:05:01;;;;;;;;;;;;;;;10.86;100.00;100777.84;2081161;28;25942;-72
2022/10/16 02:06:03;;;;;;;4.47;1.20;;;;;;;10.83;100.00;100777.91;2088744;28;20916;-72
2022/10/16 02:07:06;;;;;;;6.05;1.48;;;;;;;10.85;100.00;100781.44;2088190;28;29605;-72
2022/10/16 02:08:08;;;;;;;5.65;1.35;;;;;;;10.84;100.00;100777.00;2088547;28;20045;-72
2022/10/16 02:09:10;;;;;;;5.80;1.45;;;;;;;10.82;100.00;100774.38;2080115;28;20483;-72
2022/10/16 02:10:12;;;;;;;5.03;1.40;;;;;;;10.83;100.00;100777.91;2079618;28;38428;-72
2022/10/16 02:11:14;;;;;;;4.43;1.30;;;;;;;10.84;100.00;100780.56;2080711;28;36644;-72
2022/10/16 02:12:33;;;;;;;4.80;1.23;;;;;;;10.83;100.00;100780.59;2080908;28;20026;-72
2022/10/16 02:13:46;;;;;;;6.25;1.52;;;;;;;10.83;100.00;100784.13;2083192;28;20872;-72
2022/10/16 02:14:48;;;;;;;5.22;1.33;;;;;;;10.87;100.00;100775.13;2080229;28;37935;-72
2022/10/16 02:15:50;;;;;;;6.82;1.85;;;;;;;10.87;100.00;100779.59;2080016;28;39824;-72
2022/10/16 02:16:57;;;;;;;4.45;1.00;;;;;;;10.87;100.00;100785.84;2080233;28;20930;-72
2022/10/16 02:17:59;;;;;;;3.92;0.90;;;;;;;10.92;100.00;100776.78;2080286;28;29735;-72
2022/10/16 02:19:02;;;;;;;3.53;1.38;;;;;;;10.92;100.00;100772.31;2079749;28;42078;-72
2022/10/16 02:20:05;;;;;;;5.38;1.48;;;;;;;10.93;100.00;100781.22;2081339;28;20117;-72
2022/10/16 02:21:21;;;;;;;7.43;1.35;;;;;;;10.97;100.00;100783.78;2087384;28;35981;-72
2022/10/16 02:22:42;;;;;;;3.88;1.40;;;;;;;10.98;100.00;100787.31;2080193;28;20046;-72
2022/10/16 02:24:16;;;;;;;5.40;1.10;;;;;;;11.00;100.00;100788.16;2084447;28;20037;-72
2022/10/16 02:25:34;;;;;;;4.28;1.17;;;;;;;11.01;100.00;100782.75;2065048;28;33867;-73
2022/10/16 02:26:42;;;;;;;4.00;1.00;;;;;;;11.02;100.00;100783.66;2071716;28;30410;-72
2022/10/16 02:28:06;;;;;;;1.90;0.90;;;;;;;11.03;100.00;100770.19;2066568;28;32536;-72
2022/10/16 02:29:14;;;;;;;2.95;0.90;;;;;;;11.00;100.00;100781.03;2075222;28;42106;-72
2022/10/16 02:30:35;;;;;;;5.47;1.17;;;;;;;11.04;100.00;100779.16;2072541;28;20168;-72
2022/10/16 02:31:43;;;;;;;3.65;1.27;;;;;;;11.04;100.00;100785.38;2074481;28;37173;-72
2022/10/16 02:32:48;;;;;;;3.45;0.98;;;;;;;11.06;100.00;100777.28;2072231;28;20823;-73
2022/10/16 02:33:53;;;;;;;6.00;0.90;;;;;;;11.06;100.00;100770.13;2072674;28;34927;-72
2022/10/16 02:34:56;;;;;;;4.28;1.20;;;;;;;11.06;100.00;100766.59;2071822;28;20070;-72
2022/10/16 02:35:58;;;;;;;5.72;0.98;;;;;;;11.07;100.00;100766.53;2071543;28;33391;-72
2022/10/16 02:37:04;;;;;;;3.00;0.98;;;;;;;11.07;100.00;100769.22;2080449;28;20041;-72
2022/10/16 02:38:07;;;;;;;6.57;1.17;;;;;;;11.07;100.00;100763.88;2072347;28;24416;-73
2022/10/16 02:39:16;;;;;;;3.72;1.00;;;;;;;11.11;100.00;100766.44;2072557;28;20905;-72
2022/10/16 02:40:19;;;;;;;8.27;1.33;;;;;;;11.11;100.00;100759.28;2079143;28;39881;-73
2022/10/16 02:41:23;;;;;;;6.25;1.40;;;;;;;11.12;100.00;100762.84;2072472;28;20192;-72
2022/10/16 02:42:50;;;;;;;4.43;0.95;;;;;;;11.11;100.00;100761.97;2071647;28;33656;-73
2022/10/16 02:43:52;;;;;;;8.40;1.00;;;;;;;11.13;100.00;100769.97;2076845;28;32620;-72
2022/10/16 02:44:56;;;;;;;5.00;0.88;;;;;;;11.10;100.00;100764.69;2072349;28;38232;-72
2022/10/16 02:45:57;;;;;;;2.55;1.10;;;;;;;11.10;100.00;100759.34;2072890;28;20042;-73
2022/10/16 02:46:59;;;;;;;3.95;0.70;;;;;;;11.09;100.00;100766.50;2072150;28;37642;-72
2022/10/16 02:48:01;;;;;;;4.15;0.98;;;;;;;11.07;100.00;100768.31;2072970;28;20038;-73
2022/10/16 02:49:03;;;;;;;3.15;1.10;;;;;;;11.06;100.00;100762.09;2072447;28;33432;-72
2022/10/16 02:50:05;;;;;;;3.40;1.00;;;;;;;11.05;100.00;100763.03;2079599;28;30285;-72
2022/10/16 02:51:07;;;;;;;5.55;0.80;;;;;;;11.05;100.00;100765.72;2079201;28;38715;-72
2022/10/16 02:52:09;;;;;;;6.15;0.95;;;;;;;11.03;100.00;100764.84;2080331;28;20045;-73
2022/10/16 02:53:10;;;;;;;4.43;1.00;;;;;;;11.00;100.00;100764.06;2078862;28;39118;-74
2022/10/16 02:54:12;;;;;;;5.35;0.88;;;;;;;10.97;100.00;100761.47;2072299;28;31676;-72
2022/10/16 02:55:14;;;;;;;5.82;1.00;;;;;;;10.93;100.00;100768.72;2077820;28;31724;-72
2022/10/16 02:56:17;;;;;;;4.85;1.30;;;;;;;10.94;100.00;100770.47;2081125;28;20927;-72
2022/10/16 02:57:20;;;;;;;4.13;0.85;;;;;;;10.92;100.00;100772.31;2080699;28;20064;-71
2022/10/16 02:58:22;;;;;;;2.83;0.95;;;;;;;10.91;100.00;100765.22;2081259;28;20042;-72
2022/10/16 02:59:23;;;;;;;3.67;1.08;;;;;;;10.89;100.00;100769.69;2080589;28;20038;-72
2022/10/16 03:00:25;;;;;;;3.80;1.27;;;;;;;10.84;100.00;100774.34;2080990;28;21468;-72
2022/10/16 03:01:27;;;;;;;2.83;0.80;;;;;;;10.82;100.00;100776.16;2080133;28;36791;-72
2022/10/16 03:02:29;;;;;;;4.78;1.10;;;;;;;10.83;100.00;100776.09;2088414;28;20168;-73
2022/10/16 03:03:30;;;;;;;3.67;0.90;;;;;;;10.83;100.00;100777.91;2087427;28;31471;-72
2022/10/16 03:04:32;;;;;;;5.53;0.98;;;;;;;10.80;100.00;100775.31;2080247;28;36809;-74
2022/10/16 03:05:34;;;;;;;5.53;1.20;;;;;;;10.76;100.00;100777.19;2080093;28;32087;-72
2022/10/16 03:06:35;;;;;;;4.78;1.20;;;;;;;10.74;100.00;100779.03;2081169;28;28870;-72
2022/10/16 03:07:37;;;;;;;2.95;1.20;;;;;;;10.76;100.00;100784.34;2080192;28;36692;-73
2022/10/16 03:08:39;;;;;;;4.38;1.20;;;;;;;10.75;100.00;100786.16;2081007;28;20930;-73
2022/10/16 03:09:41;;;;;;;7.10;1.02;;;;;;;10.72;100.00;100783.56;2079955;28;36676;-72
2022/10/16 03:10:42;;;;;;;4.07;1.30;;;;;;;10.68;100.00;100784.56;2080089;28;34549;-73
2022/10/16 03:11:44;;;;;;;4.00;1.00;;;;;;;10.66;100.00;100781.06;2079898;28;35327;-73
2022/10/16 03:12:46;;;;;;;3.70;1.13;;;;;;;10.62;100.00;100772.22;2080298;28;41246;-72
2022/10/16 03:13:47;;;;;;;4.93;1.10;;;;;;;10.63;100.00;100782.00;2080005;28;38942;-72
2022/10/16 03:14:49;;;;;;;5.25;1.10;;;;;;;10.60;100.00;100776.69;2080910;28;20835;-73
2022/10/16 03:15:51;;;;;;;4.22;1.13;;;;;;;10.53;100.00;100772.44;2080124;28;34957;-73
2022/10/16 03:16:52;;;;;;;3.67;1.02;;;;;;;10.52;100.00;100773.38;2080975;28;20033;-73
2022/10/16 03:17:56;;;;;;;4.47;1.20;;;;;;;10.52;100.00;100773.38;2080020;28;39004;-73
2022/10/16 03:18:58;;;;;;;3.85;1.00;;;;;;;10.50;100.00;100770.72;2080301;28;36131;-73
2022/10/16 03:20:00;;;;;;;3.20;1.35;;;;;;;10.55;100.00;100778.66;2080421;28;20919;-73
2022/10/16 03:21:02;;;;;;;4.25;1.15;;;;;;;10.56;100.00;100776.84;2081056;28;20041;-73
2022/10/16 03:22:04;;;;;;;4.68;1.25;;;;;;;10.52;100.00;100773.38;2079999;28;20128;-73
2022/10/16 03:23:07;;;;;;;3.88;1.20;;;;;;;10.53;100.00;100777.78;2079528;28;28910;-73
2022/10/16 03:24:09;;;;;;;4.90;1.02;;;;;;;10.52;100.00;100773.38;2079842;28;32223;-73
2022/10/16 03:25:11;;;;;;;6.47;1.08;;;;;;;10.54;100.00;100779.56;2080825;28;20890;-73
2022/10/16 03:26:13;;;;;;;3.90;1.35;;;;;;;10.51;100.00;100776.94;2079798;28;34584;-73
2022/10/16 03:27:14;;;;;;;6.03;1.23;;;;;;;10.61;100.00;100775.81;2080041;28;34715;-73
2022/10/16 03:28:18;;;;;;;5.55;1.20;;;;;;;10.61;100.00;100773.13;2080554;28;20903;-73
2022/10/16 03:29:20;;;;;;;3.40;1.25;;;;;;;10.63;100.00;100776.63;2088269;28;25973;-73
2022/10/16 03:30:21;;;;;;;3.78;1.33;;;;;;;10.64;100.00;100772.16;2087368;28;38065;-73
2022/10/16 03:31:23;;;;;;;7.03;1.30;;;;;;;10.63;100.00;100784.66;2080137;28;34302;-73
2022/10/16 03:32:25;;;;;;;4.38;1.42;;;;;;;10.68;100.00;100774.72;2079740;28;32289;-73
2022/10/16 03:33:29;;;;;;;6.47;1.40;;;;;;;10.72;100.00;100780.00;2080802;28;20041;-72
2022/10/16 03:34:31;;;;;;;3.25;1.50;;;;;;;10.75;100.00;100771.88;2079512;28;38347;-73
2022/10/16 03:35:33;;;;;;;8.05;1.50;;;;;;;10.81;100.00;100769.03;2081097;28;20124;-72
2022/10/16 03:36:34;;;;;;;6.15;1.55;;;;;;;10.82;100.00;100777.03;2079343;28;34008;-73
2022/10/16 03:37:36;;;;;;;3.85;1.17;;;;;;;10.87;100.00;100779.59;2079508;28;38788;-73
2022/10/16 03:38:38;;;;;;;5.57;1.10;;;;;;;10.91;100.00;100781.28;2080293;28;25310;-73
2022/10/16 03:39:39;;;;;;;7.68;1.30;;;;;;;10.94;100.00;100775.81;2080205;28;31056;-73
2022/10/16 03:40:41;;;;;;;6.05;1.20;;;;;;;10.98;100.00;100777.50;2080541;28;20057;-73
2022/10/16 03:41:43;;;;;;;4.13;1.38;;;;;;;10.97;100.00;100777.56;2080552;28;20042;-73
2022/10/16 03:42:45;;;;;;;4.90;2.00;;;;;;;11.02;100.00;100784.53;2079281;28;30774;-73
2022/10/16 03:43:46;;;;;;;5.38;1.50;;;;;;;11.01;100.00;100776.53;2079966;28;20061;-73
2022/10/16 03:44:48;;;;;;;5.70;1.75;;;;;;;11.02;100.00;100792.56;2080168;28;32628;-73
2022/10/16 03:45:51;;;;;;;8.60;1.88;;;;;;;11.02;100.00;100794.38;2080823;28;20045;-73
2022/10/16 03:46:53;;;;;;;4.25;1.67;;;;;;;11.05;100.00;100796.97;2079165;28;40917;-73
2022/10/16 03:47:55;;;;;;;4.20;1.92;;;;;;;11.06;100.00;100791.56;2079930;28;20151;-73
2022/10/16 03:48:57;;;;;;;5.13;2.10;;;;;;;11.13;100.00;100796.78;2079838;28;38671;-73
2022/10/16 03:49:59;;;;;;;5.93;1.60;;;;;;;11.12;100.00;100795.00;2080777;28;20041;-73
2022/10/16 03:51:01;;;;;;;6.10;1.60;;;;;;;11.14;100.00;100793.16;2079940;28;34123;-73
2022/10/16 03:52:03;;;;;;;3.15;1.70;;;;;;;11.14;100.00;100798.50;2079971;28;20938;-73
2022/10/16 03:53:04;;;;;;;3.80;1.60;;;;;;;11.12;100.00;100793.19;2079380;28;35233;-73
2022/10/16 03:54:06;;;;;;;10.15;2.10;;;;;;;11.14;100.00;100794.03;2087509;28;34665;-73
2022/10/16 03:55:08;;;;;;;8.18;1.73;;;;;;;11.15;100.00;100805.63;2088109;28;20536;-72
2022/10/16 03:56:10;;;;;;;8.35;2.40;;;;;;;11.16;100.00;100791.31;2080212;28;20034;-73
2022/10/16 03:57:11;;;;;;;3.92;1.77;;;;;;;11.15;100.00;100793.13;2079929;28;36751;-73
2022/10/16 03:58:13;;;;;;;6.85;2.25;;;;;;;11.15;100.00;100794.91;2079983;28;20046;-72
2022/10/16 03:59:15;;;;;;;6.47;2.20;;;;;;;11.14;100.00;100794.03;2079809;28;25812;-73
2022/10/16 04:00:19;;;;;;;5.18;2.05;;;;;;;11.17;100.00;100801.13;2079781;28;20061;-72
2022/10/16 04:01:21;;;;;;;5.35;2.28;;;;;;;11.19;100.00;100799.28;2079198;28;31364;-72
2022/10/16 04:02:25;;;;;;;5.07;2.28;;;;;;;11.18;100.00;100809.13;2079242;28;36077;-72
2022/10/16 04:03:27;;;;;;;5.40;2.47;;;;;;;11.16;100.00;100810.97;2079236;28;35624;-72
2022/10/16 04:04:28;;;;;;;3.88;2.25;;;;;;;11.19;100.00;100815.34;2079923;28;33657;-72
2022/10/16 04:05:30;;;;;;;5.28;2.30;;;;;;;11.19;100.00;100815.34;2087335;28;33845;-73
2022/10/16 04:06:32;;;;;;;5.93;2.45;;;;;;;11.18;100.00;100814.47;2088156;28;20930;-72
2022/10/16 04:07:34;;;;;;;4.93;2.17;;;;;;;11.20;100.00;100817.13;2087229;28;34540;-72
2022/10/16 04:08:36;;;;;;;6.65;2.70;;;;;;;11.21;100.00;100821.53;2087251;28;37399;-73
2022/10/16 04:09:38;;;;;;;7.68;2.90;;;;;;;11.21;100.00;100818.84;2080022;28;32463;-72
2022/10/16 04:10:43;;;;;;;2.80;2.10;;;;;;;11.22;100.00;100823.31;2080169;28;20045;-74
2022/10/16 04:11:44;;;;;;;6.53;2.42;;;;;;;11.23;100.00;100828.63;2079731;28;20053;-72
2022/10/16 04:12:46;;;;;;;9.38;2.78;;;;;;;11.25;100.00;100821.44;2079440;28;33175;-73
2022/10/16 04:13:50;;;;;;;7.28;2.95;;;;;;;11.27;100.00;100830.31;2079667;28;39234;-72
2022/10/16 04:14:52;;;;;;;6.25;2.65;;;;;;;11.28;100.00;100828.50;2079855;28;35205;-73
2022/10/16 04:15:53;;;;;;;5.32;2.80;;;;;;;11.30;100.00;100829.31;2080080;28;30540;-72
2022/10/16 04:16:56;;;;;;;6.47;2.90;;;;;;;11.32;100.00;100822.09;2080495;28;20111;-72
2022/10/16 04:17:57;;;;;;;4.57;2.70;;;;;;;11.31;100.00;100822.19;2079637;28;27966;-72
2022/10/16 04:18:59;;;;;;;6.22;2.90;;;;;;;11.34;100.00;100824.75;2079208;28;36677;-72
2022/10/16 04:20:02;;;;;;;5.85;2.90;;;;;;;11.33;100.00;100825.69;2080600;28;20038;-72
2022/10/16 04:21:06;;;;;;;8.50;3.40;;;;;;;11.33;100.00;100825.69;2080293;28;20135;-72
2022/10/16 04:22:07;;;;;;;7.05;2.88;;;;;;;11.33;100.00;100815.84;2079332;28;34652;-72
2022/10/16 04:23:11;;;;;;;7.13;2.97;;;;;;;11.35;100.00;100822.03;2079631;28;20038;-72
2022/10/16 04:24:13;;;;;;;7.32;3.50;;;;;;;11.38;100.00;100829.13;2080364;28;20046;-73
2022/10/16 04:25:15;;;;;;;6.50;3.65;;;;;;;11.38;100.00;100823.78;2080006;28;20049;-73
2022/10/16 04:26:17;;;;;;;6.88;3.30;;;;;;;11.39;100.00;100817.47;2079558;28;35945;-72
2022/10/16 04:27:19;;;;;;;7.13;3.65;;;;;;;11.38;100.00;100819.28;2080588;28;20166;-72
2022/10/16 04:28:20;;;;;;;5.28;3.58;;;;;;;11.38;100.00;100818.41;2087773;28;20045;-72
2022/10/16 04:29:22;;;;;;;9.77;4.00;;;;;;;11.41;100.00;100818.28;2087092;28;33894;-72
2022/10/16 04:30:24;;;;;;;7.70;3.90;;;;;;;11.40;100.00;100817.44;2087469;28;32453;-72
2022/10/16 04:31:26;;;;;;;5.63;3.30;;;;;;;11.40;100.00;100812.06;2087150;28;35652;-73
2022/10/16 04:32:27;;;;;;;9.75;4.35;;;;;;;11.43;100.00;100822.72;2079903;28;31842;-73
2022/10/16 04:33:31;;;;;;;7.97;4.15;;;;;;;11.46;100.00;100819.91;2080106;28;20050;-72
2022/10/16 04:34:33;;;;;;;6.10;4.15;;;;;;;11.44;100.00;100813.72;2079586;28;35023;-74
2022/10/16 04:35:35;;;;;;;8.85;4.30;;;;;;;11.44;100.00;100821.78;2080000;28;31825;-73
2022/10/16 04:36:37;;;;;;;8.57;3.92;;;;;;;11.42;100.00;100820.06;2080396;28;20041;-73
2022/10/16 04:37:39;;;;;;;7.40;4.43;;;;;;;11.42;100.00;100815.56;2079024;28;35848;-72
2022/10/16 04:38:40;;;;;;;8.25;4.65;;;;;;;11.44;100.00;100820.91;2079641;28;20045;-72
2022/10/16 04:39:42;;;;;;;7.13;3.97;;;;;;;11.43;100.00;100821.81;2079744;28;33678;-73
2022/10/16 04:40:44;;;;;;;7.38;4.68;;;;;;;11.45;100.00;100826.22;2079455;28;31389;-73
2022/10/16 04:41:46;;;;;;;6.97;5.15;;;;;;;11.43;100.00;100817.34;2080438;28;20041;-70
2022/10/16 04:42:48;;;;;;;9.18;5.22;;;;;;;11.43;100.00;100817.34;2079781;28;33935;-74
2022/10/16 04:43:49;;;;;;;9.57;5.60;;;;;;;11.45;100.00;100812.81;2079571;28;33498;-71
2022/10/16 04:44:51;;;;;;;8.80;5.63;;;;;;;11.41;100.00;100816.53;2079522;28;24079;-73
2022/10/16 04:45:54;;;;;;;8.40;5.45;;;;;;;11.39;100.00;100826.38;2079615;28;35224;-72
2022/10/16 04:46:56;;;;;;;8.23;5.22;;;;;;;11.42;100.00;100826.31;2079285;28;40794;-74
2022/10/16 04:47:59;;;;;;;7.90;5.20;;;;;;;11.38;100.00;100824.63;2078681;28;38085;-73
2022/10/16 04:49:01;;;;;;;11.48;5.68;;;;;;;11.37;100.00;100833.59;2079231;28;38590;-72
2022/10/16 04:50:02;;;;;;;9.90;5.72;;;;;;;11.38;100.00;100837.16;2079421;28;37141;-73
2022/10/16 04:51:04;;;;;;;10.45;5.60;;;;;;;11.36;100.00;100831.84;2079706;28;34619;-73
2022/10/16 04:52:06;;;;;;;9.70;5.57;;;;;;;11.33;100.00;100839.97;2079255;28;33862;-73
2022/10/16 04:53:08;;;;;;;9.45;5.75;;;;;;;11.30;100.00;100839.16;2080029;28;20041;-73
2022/10/16 04:54:10;;;;;;;10.75;5.90;;;;;;;11.26;100.00;100841.94;2078569;28;20061;-73
2022/10/16 04:55:12;;;;;;;12.02;6.32;;;;;;;11.24;100.00;100846.44;2079782;28;20045;-73
2022/10/16 04:56:15;;;;;;;10.30;6.00;;;;;;;11.25;100.00;100845.53;2079572;28;29579;-71
2022/10/16 04:57:17;;;;;;;9.18;6.10;;;;;;;11.23;100.00;100852.75;2079905;28;35071;-73
2022/10/16 04:58:19;;;;;;;10.32;7.20;;;;;;;11.24;100.00;100858.97;2080683;28;20835;-73
2022/10/16 04:59:20;;;;;;;12.85;6.97;;;;;;;11.25;100.00;100860.72;2079027;28;35010;-72
2022/10/16 05:00:22;;;;;;;13.60;6.30;;;;;;;11.24;100.00;100856.31;2079419;28;20879;-73
2022/10/16 05:01:24;;;;;;;12.40;7.68;;;;;;;11.27;100.00;100854.41;2079465;28;34164;-72